Time,TemperatureF,DewpointF,PressureIn,WindDirection,WindDirectionDegrees,WindSpeedMPH,WindSpeedGustMPH,Humidity,HourlyPrecipIn,Conditions,Clouds,dailyrainin,SoftwareType,DateUTC
2013-05-08 00:01:00,51.2,49.5,29.89,SW,222,1.0,2.0,94,0.00,,,1.12,Wunderground v.1.15,2013-05-08 04:01:00,
2013-05-08 00:06:00,51.1,49.4,29.89,SW,222,1.0,3.0,94,0.00,,,0.00,Wunderground v.1.15,2013-05-08 04:06:00,
2013-05-08 00:07:00,51.1,49.4,29.90,SW,222,1.0,3.0,94,0.00,,,0.00,Wunderground v.1.15,2013-05-08 04:07:00,
2013-05-08 00:08:00,51.1,49.4,29.90,SW,222,1.0,3.0,94,0.00,,,0.00,Wunderground v.1.15,2013-05-08 04:08:00,
2013-05-08 00:09:00,51.1,49.4,29.90,SW,222,1.0,3.0,94,0.00,,,0.00,Wunderground v.1.15,2013-05-08 04:09:00,
2013-05-08 00:14:00,51.0,49.3,29.90,SW,222,1.0,1.0,94,0.00,,,0.00,Wunderground v.1.15,2013-05-08 04:14:00,
2013-05-08 00:20:00,51.0,49.3,29.90,SW,222,0.0,1.0,94,0.00,,,0.00,Wunderground v.1.15,2013-05-08 04:20:00,
2013-05-08 00:25:00,50.9,49.2,29.89,SW,222,0.0,0.0,94,0.00,,,0.00,Wunderground v.1.15,2013-05-08 04:25:00,
2013-05-08 00:30:00,50.8,49.1,29.89,SW,216,1.0,1.0,94,0.00,,,0.00,Wunderground v.1.15,2013-05-08 04:30:00,
2013-05-08 00:36:00,50.8,49.1,29.89,SW,216,1.0,2.0,94,0.00,,,0.00,Wunderground v.1.15,2013-05-08 04:36:00,
2013-05-08 00:42:00,50.8,49.1,29.90,SW,216,0.0,0.0,94,0.00,,,0.00,Wunderground v.1.15,2013-05-08 04:42:00,
2013-05-08 00:47:00,50.8,49.1,29.89,SW,216,0.0,5.0,94,0.00,,,0.00,Wunderground v.1.15,2013-05-08 04:47:00,
2013-05-08 00:53:00,50.8,49.1,29.89,SW,216,0.0,5.0,94,0.00,,,0.00,Wunderground v.1.15,2013-05-08 04:53:00,
2013-05-08 00:59:00,50.7,49.0,29.89,SW,216,0.0,5.0,94,0.00,,,0.00,Wunderground v.1.15,2013-05-08 04:59:00,
2013-05-08 01:05:00,50.7,49.0,29.89,SW,216,0.0,5.0,94,0.00,,,0.00,Wunderground v.1.15,2013-05-08 05:05:00,
2013-05-08 01:11:00,50.6,48.9,29.89,SW,216,0.0,5.0,94,0.00,,,0.00,Wunderground v.1.15,2013-05-08 05:11:00,
2013-05-08 01:16:00,50.5,48.8,29.89,SW,216,0.0,5.0,94,0.00,,,0.00,Wunderground v.1.15,2013-05-08 05:16:00,
2013-05-08 01:22:00,50.5,48.8,29.89,SW,216,0.0,5.0,94,0.00,,,0.00,Wunderground v.1.15,2013-05-08 05:22:00,
2013-05-08 01:27:00,50.5,49.1,29.89,SW,216,0.0,5.0,95,0.00,,,0.00,Wunderground v.1.15,2013-05-08 05:27:00,
2013-05-08 01:33:00,50.5,49.1,29.89,SW,216,0.0,5.0,95,0.00,,,0.00,Wunderground v.1.15,2013-05-08 05:33:00,
2013-05-08 01:38:00,50.5,48.8,29.89,SW,216,0.0,5.0,94,0.00,,,0.00,Wunderground v.1.15,2013-05-08 05:38:00,
2013-05-08 01:44:00,50.4,48.7,29.89,SW,216,0.0,5.0,94,0.00,,,0.00,Wunderground v.1.15,2013-05-08 05:44:00,
2013-05-08 01:49:00,50.4,48.7,29.89,SW,216,0.0,5.0,94,0.00,,,0.00,Wunderground v.1.15,2013-05-08 05:49:00,
2013-05-08 01:55:00,50.5,49.1,29.89,SW,216,0.0,5.0,95,0.00,,,0.00,Wunderground v.1.15,2013-05-08 05:55:00,
2013-05-08 02:00:00,50.6,49.2,29.89,SW,216,0.0,5.0,95,0.00,,,0.00,Wunderground v.1.15,2013-05-08 06:00:00,
2013-05-08 02:06:00,50.6,49.2,29.89,SW,216,0.0,5.0,95,0.00,,,0.00,Wunderground v.1.15,2013-05-08 06:06:00,
2013-05-08 02:12:00,50.5,49.1,29.89,SW,216,0.0,5.0,95,0.00,,,0.00,Wunderground v.1.15,2013-05-08 06:12:00,
2013-05-08 02:18:00,50.6,49.2,29.89,SW,216,0.0,5.0,95,0.00,,,0.00,Wunderground v.1.15,2013-05-08 06:18:00,
2013-05-08 02:24:00,50.6,49.2,29.89,SW,216,0.0,5.0,95,0.00,,,0.00,Wunderground v.1.15,2013-05-08 06:24:00,
2013-05-08 02:29:00,50.5,49.1,29.89,SW,216,0.0,5.0,95,0.00,,,0.00,Wunderground v.1.15,2013-05-08 06:29:00,
2013-05-08 02:35:00,50.5,49.1,29.89,SW,216,0.0,5.0,95,0.00,,,0.00,Wunderground v.1.15,2013-05-08 06:35:00,
2013-05-08 02:40:00,50.5,49.1,29.89,SW,216,0.0,5.0,95,0.00,,,0.00,Wunderground v.1.15,2013-05-08 06:40:00,
2013-05-08 02:46:00,50.6,49.2,29.89,SW,216,0.0,5.0,95,0.00,,,0.00,Wunderground v.1.15,2013-05-08 06:46:00,
2013-05-08 02:51:00,50.6,49.2,29.89,SW,216,0.0,5.0,95,0.00,,,0.00,Wunderground v.1.15,2013-05-08 06:51:00,
2013-05-08 02:57:00,50.6,49.2,29.89,SW,216,0.0,5.0,95,0.00,,,0.00,Wunderground v.1.15,2013-05-08 06:57:00,
2013-05-08 03:02:00,50.7,49.3,29.89,SW,216,0.0,5.0,95,0.00,,,0.00,Wunderground v.1.15,2013-05-08 07:02:00,
2013-05-08 03:07:00,50.6,49.2,29.89,East,94,1.0,5.0,95,0.00,,,0.00,Wunderground v.1.15,2013-05-08 07:07:00,
2013-05-08 03:13:00,50.5,49.1,29.89,ENE,70,1.0,5.0,95,0.00,,,0.00,Wunderground v.1.15,2013-05-08 07:13:00,
2013-05-08 03:18:00,50.6,49.2,29.89,ENE,63,1.0,5.0,95,0.00,,,0.00,Wunderground v.1.15,2013-05-08 07:18:00,
2013-05-08 03:24:00,51.0,49.6,29.89,NNE,16,1.0,5.0,95,0.00,,,0.00,Wunderground v.1.15,2013-05-08 07:24:00,
2013-05-08 03:29:00,51.1,49.7,29.89,East,79,1.0,5.0,95,0.00,,,0.00,Wunderground v.1.15,2013-05-08 07:29:00,
2013-05-08 03:35:00,51.1,49.7,29.90,East,79,1.0,5.0,95,0.00,,,0.00,Wunderground v.1.15,2013-05-08 07:35:00,
2013-05-08 03:41:00,51.3,49.9,29.90,SE,124,1.0,5.0,95,0.00,,,0.00,Wunderground v.1.15,2013-05-08 07:41:00,
2013-05-08 03:47:00,51.4,50.0,29.90,SE,124,1.0,5.0,95,0.00,,,0.00,Wunderground v.1.15,2013-05-08 07:47:00,
2013-05-08 03:52:00,51.5,50.1,29.90,SE,124,0.0,5.0,95,0.00,,,0.00,Wunderground v.1.15,2013-05-08 07:52:00,
2013-05-08 03:58:00,51.6,50.2,29.90,SE,124,0.0,5.0,95,0.00,,,0.00,Wunderground v.1.15,2013-05-08 07:58:00,
2013-05-08 04:03:00,51.7,50.3,29.90,ESE,123,0.0,5.0,95,0.00,,,0.00,Wunderground v.1.15,2013-05-08 08:03:00,
2013-05-08 04:09:00,51.9,50.5,29.90,East,85,1.0,5.0,95,0.00,,,0.00,Wunderground v.1.15,2013-05-08 08:09:00,
2013-05-08 04:14:00,52.0,50.6,29.90,East,87,2.0,7.0,95,0.00,,,0.00,Wunderground v.1.15,2013-05-08 08:14:00,
2013-05-08 04:20:00,52.2,50.8,29.90,ESE,104,5.0,5.0,95,0.00,,,0.00,Wunderground v.1.15,2013-05-08 08:20:00,
2013-05-08 04:25:00,52.3,50.6,29.90,East,93,5.0,7.0,94,0.00,,,0.00,Wunderground v.1.15,2013-05-08 08:25:00,
2013-05-08 04:31:00,52.3,50.6,29.89,ESE,111,3.0,5.0,94,0.00,,,0.00,Wunderground v.1.15,2013-05-08 08:31:00,
2013-05-08 04:37:00,52.3,50.6,29.89,East,87,3.0,5.0,94,0.00,,,0.00,Wunderground v.1.15,2013-05-08 08:37:00,
2013-05-08 04:42:00,52.3,50.6,29.89,ESE,109,2.0,5.0,94,0.00,,,0.00,Wunderground v.1.15,2013-05-08 08:42:00,
2013-05-08 04:48:00,52.3,50.6,29.89,ESE,109,2.0,5.0,94,0.00,,,0.00,Wunderground v.1.15,2013-05-08 08:48:00,
2013-05-08 04:54:00,52.3,50.6,29.89,ESE,102,2.0,5.0,94,0.00,,,0.00,Wunderground v.1.15,2013-05-08 08:54:00,
2013-05-08 04:59:00,52.4,50.4,29.89,East,79,2.0,5.0,93,0.00,,,0.00,Wunderground v.1.15,2013-05-08 08:59:00,
2013-05-08 05:04:00,52.4,50.4,29.89,East,100,2.0,5.0,93,0.00,,,0.00,Wunderground v.1.15,2013-05-08 09:04:00,
2013-05-08 05:10:00,52.4,50.4,29.89,ESE,120,2.0,5.0,93,0.00,,,0.00,Wunderground v.1.15,2013-05-08 09:10:00,
2013-05-08 05:16:00,52.3,50.3,29.89,ESE,120,0.0,5.0,93,0.00,,,0.00,Wunderground v.1.15,2013-05-08 09:16:00,
2013-05-08 05:22:00,52.3,50.3,29.89,ESE,120,0.0,5.0,93,0.00,,,0.00,Wunderground v.1.15,2013-05-08 09:22:00,
2013-05-08 05:27:00,52.1,50.1,29.89,ESE,120,0.0,5.0,93,0.00,,,0.00,Wunderground v.1.15,2013-05-08 09:27:00,
2013-05-08 05:32:00,51.9,49.9,29.89,ESE,120,0.0,5.0,93,0.00,,,0.00,Wunderground v.1.15,2013-05-08 09:32:00,
2013-05-08 05:38:00,51.8,49.8,29.89,ESE,120,0.0,5.0,93,0.00,,,0.00,Wunderground v.1.15,2013-05-08 09:38:00,
2013-05-08 05:44:00,51.7,50.0,29.89,ESE,120,0.0,5.0,94,0.00,,,0.00,Wunderground v.1.15,2013-05-08 09:44:00,
2013-05-08 05:49:00,51.7,50.0,29.89,ESE,120,0.0,5.0,94,0.00,,,0.00,Wunderground v.1.15,2013-05-08 09:49:00,
2013-05-08 05:55:00,51.6,49.9,29.89,ESE,120,0.0,5.0,94,0.00,,,0.00,Wunderground v.1.15,2013-05-08 09:55:00,
2013-05-08 06:00:00,51.5,49.8,29.89,ENE,70,1.0,5.0,94,0.00,,,0.00,Wunderground v.1.15,2013-05-08 10:00:00,
2013-05-08 06:05:00,51.4,49.7,29.89,ENE,70,1.0,5.0,94,0.00,,,0.00,Wunderground v.1.15,2013-05-08 10:05:00,
2013-05-08 06:11:00,51.3,49.6,29.89,ENE,70,0.0,5.0,94,0.00,,,0.00,Wunderground v.1.15,2013-05-08 10:11:00,
2013-05-08 06:16:00,51.3,49.6,29.90,ENE,70,0.0,5.0,94,0.00,,,0.00,Wunderground v.1.15,2013-05-08 10:16:00,
2013-05-08 06:22:00,51.2,49.5,29.90,ENE,70,0.0,5.0,94,0.00,,,0.00,Wunderground v.1.15,2013-05-08 10:22:00,
2013-05-08 06:27:00,51.2,49.5,29.90,ENE,70,0.0,5.0,94,0.00,,,0.00,Wunderground v.1.15,2013-05-08 10:27:00,
2013-05-08 06:33:00,51.3,49.9,29.90,ENE,70,0.0,5.0,95,0.00,,,0.00,Wunderground v.1.15,2013-05-08 10:33:00,
2013-05-08 06:38:00,51.4,50.0,29.90,ENE,70,0.0,5.0,95,0.00,,,0.00,Wunderground v.1.15,2013-05-08 10:38:00,
2013-05-08 06:43:00,51.3,49.9,29.90,NE,48,1.0,5.0,95,0.00,,,0.00,Wunderground v.1.15,2013-05-08 10:43:00,
2013-05-08 06:49:00,51.1,49.4,29.91,NE,48,2.0,5.0,94,0.00,,,0.00,Wunderground v.1.15,2013-05-08 10:49:00,
2013-05-08 06:54:00,51.1,49.4,29.91,NE,48,1.0,5.0,94,0.00,,,0.00,Wunderground v.1.15,2013-05-08 10:54:00,
2013-05-08 07:00:00,51.1,49.4,29.91,NE,48,1.0,1.0,94,0.00,,,0.00,Wunderground v.1.15,2013-05-08 11:00:00,
2013-05-08 07:06:00,51.2,49.8,29.91,NE,48,1.0,5.0,95,0.00,,,0.00,Wunderground v.1.15,2013-05-08 11:06:00,
2013-05-08 07:11:00,51.3,49.9,29.92,NE,48,0.0,5.0,95,0.00,,,0.00,Wunderground v.1.15,2013-05-08 11:11:00,
2013-05-08 07:17:00,51.4,50.0,29.92,NE,48,0.0,5.0,95,0.00,,,0.00,Wunderground v.1.15,2013-05-08 11:17:00,
2013-05-08 07:23:00,51.4,50.0,29.92,NE,48,1.0,5.0,95,0.00,,,0.00,Wunderground v.1.15,2013-05-08 11:23:00,
2013-05-08 07:29:00,51.5,50.1,29.93,NE,48,0.0,5.0,95,0.00,,,0.00,Wunderground v.1.15,2013-05-08 11:29:00,
2013-05-08 07:35:00,51.5,50.1,29.93,NE,48,0.0,5.0,95,0.00,,,0.00,Wunderground v.1.15,2013-05-08 11:35:00,
2013-05-08 07:40:00,51.3,49.9,29.93,NE,48,1.0,1.0,95,0.00,,,0.00,Wunderground v.1.15,2013-05-08 11:40:00,
2013-05-08 07:46:00,51.4,50.0,29.93,NE,48,0.0,5.0,95,0.00,,,0.00,Wunderground v.1.15,2013-05-08 11:46:00,
2013-05-08 07:51:00,51.3,49.9,29.93,NNE,27,1.0,5.0,95,0.00,,,0.00,Wunderground v.1.15,2013-05-08 11:51:00,
2013-05-08 07:57:00,51.2,49.8,29.93,NNE,27,2.0,5.0,95,0.00,,,0.00,Wunderground v.1.15,2013-05-08 11:57:00,
2013-05-08 08:03:00,51.4,50.0,29.93,NNE,27,1.0,5.0,95,0.00,,,0.00,Wunderground v.1.15,2013-05-08 12:03:00,
2013-05-08 08:08:00,51.6,50.2,29.93,NNE,27,0.0,5.0,95,0.00,,,0.00,Wunderground v.1.15,2013-05-08 12:08:00,
2013-05-08 08:14:00,51.9,50.5,29.94,WNW,293,0.0,5.0,95,0.00,,,0.00,Wunderground v.1.15,2013-05-08 12:14:00,
2013-05-08 08:20:00,52.1,50.7,29.94,NNW,335,1.0,5.0,95,0.00,,,0.00,Wunderground v.1.15,2013-05-08 12:20:00,
2013-05-08 08:26:00,52.0,50.6,29.94,NNW,335,1.0,5.0,95,0.00,,,0.00,Wunderground v.1.15,2013-05-08 12:26:00,
2013-05-08 08:32:00,52.1,50.7,29.94,NNW,335,0.0,5.0,95,0.00,,,0.00,Wunderground v.1.15,2013-05-08 12:32:00,
2013-05-08 08:38:00,52.4,51.0,29.94,NNW,335,0.0,5.0,95,0.00,,,0.00,Wunderground v.1.15,2013-05-08 12:38:00,
2013-05-08 08:43:00,52.6,51.2,29.94,North,354,0.0,5.0,95,0.00,,,0.00,Wunderground v.1.15,2013-05-08 12:43:00,
2013-05-08 08:49:00,52.7,51.3,29.94,North,354,0.0,5.0,95,0.00,,,0.00,Wunderground v.1.15,2013-05-08 12:49:00,
2013-05-08 08:54:00,52.8,51.4,29.94,North,354,0.0,5.0,95,0.00,,,0.00,Wunderground v.1.15,2013-05-08 12:54:00,
2013-05-08 08:59:00,53.0,51.6,29.94,North,354,0.0,5.0,95,0.00,,,0.00,Wunderground v.1.15,2013-05-08 12:59:00,
2013-05-08 09:04:00,53.1,51.7,29.94,North,354,0.0,5.0,95,0.00,,,0.00,Wunderground v.1.15,2013-05-08 13:04:00,
2013-05-08 09:09:00,53.2,51.8,29.94,North,359,1.0,5.0,95,0.00,,,0.00,Wunderground v.1.15,2013-05-08 13:09:00,
2013-05-08 09:15:00,53.4,52.0,29.94,NNE,15,1.0,5.0,95,0.00,,,0.00,Wunderground v.1.15,2013-05-08 13:15:00,
2013-05-08 09:21:00,53.6,51.9,29.94,NNE,15,0.0,5.0,94,0.00,,,0.00,Wunderground v.1.15,2013-05-08 13:21:00,
2013-05-08 09:26:00,53.7,52.0,29.94,NNE,15,0.0,5.0,94,0.00,,,0.00,Wunderground v.1.15,2013-05-08 13:26:00,
2013-05-08 09:32:00,53.9,52.2,29.94,NNE,15,0.0,5.0,94,0.00,,,0.00,Wunderground v.1.15,2013-05-08 13:32:00,
2013-05-08 09:37:00,54.1,52.4,29.94,NNE,14,0.0,5.0,94,0.00,,,0.00,Wunderground v.1.15,2013-05-08 13:37:00,
2013-05-08 09:42:00,54.1,52.1,29.94,NNE,16,1.0,5.0,93,0.00,,,0.00,Wunderground v.1.15,2013-05-08 13:42:00,
2013-05-08 09:48:00,54.1,52.1,29.94,NNE,16,1.0,5.0,93,0.00,,,0.00,Wunderground v.1.15,2013-05-08 13:48:00,
2013-05-08 09:54:00,54.1,52.1,29.94,NNE,16,0.0,5.0,93,0.20,,,0.02,Wunderground v.1.15,2013-05-08 13:54:00,
2013-05-08 09:59:00,54.1,52.1,29.94,NNE,16,0.0,5.0,93,0.35,,,0.05,Wunderground v.1.15,2013-05-08 13:59:00,
2013-05-08 10:05:00,54.0,52.0,29.94,NNE,16,0.0,5.0,93,0.31,,,0.10,Wunderground v.1.15,2013-05-08 14:05:00,
2013-05-08 10:10:00,53.9,51.9,29.94,NNE,16,0.0,5.0,93,0.17,,,0.11,Wunderground v.1.15,2013-05-08 14:10:00,
2013-05-08 10:15:00,53.9,51.9,29.95,NNE,16,0.0,5.0,93,0.17,,,0.13,Wunderground v.1.15,2013-05-08 14:15:00,
2013-05-08 10:20:00,53.8,51.8,29.95,NNE,16,0.0,5.0,93,0.12,,,0.14,Wunderground v.1.15,2013-05-08 14:20:00,
2013-05-08 10:26:00,53.7,51.7,29.95,NNE,16,0.0,5.0,93,0.10,,,0.14,Wunderground v.1.15,2013-05-08 14:26:00,
2013-05-08 10:32:00,53.9,51.9,29.95,NNE,16,0.0,5.0,93,0.05,,,0.14,Wunderground v.1.15,2013-05-08 14:32:00,
2013-05-08 10:37:00,53.9,51.9,29.95,NNE,16,0.0,5.0,93,0.00,,,0.14,Wunderground v.1.15,2013-05-08 14:37:00,
2013-05-08 10:43:00,54.1,52.4,29.94,NNE,16,0.0,5.0,94,0.00,,,0.14,Wunderground v.1.15,2013-05-08 14:43:00,
2013-05-08 10:48:00,54.1,52.4,29.94,NNE,13,1.0,5.0,94,0.00,,,0.14,Wunderground v.1.15,2013-05-08 14:48:00,
2013-05-08 10:53:00,54.1,52.4,29.94,NNE,13,1.0,5.0,94,0.00,,,0.14,Wunderground v.1.15,2013-05-08 14:53:00,
2013-05-08 10:58:00,54.2,52.5,29.94,NNE,13,1.0,5.0,94,0.00,,,0.14,Wunderground v.1.15,2013-05-08 14:58:00,
2013-05-08 11:03:00,54.3,52.6,29.94,NNE,13,0.0,5.0,94,0.00,,,0.14,Wunderground v.1.15,2013-05-08 15:03:00,
2013-05-08 11:08:00,54.4,52.7,29.94,NNE,14,0.0,5.0,94,0.00,,,0.14,Wunderground v.1.15,2013-05-08 15:08:00,
2013-05-08 11:13:00,54.7,53.0,29.94,ENE,64,1.0,5.0,94,0.00,,,0.14,Wunderground v.1.15,2013-05-08 15:13:00,
2013-05-08 11:19:00,54.7,52.4,29.94,ENE,63,1.0,5.0,92,0.00,,,0.14,Wunderground v.1.15,2013-05-08 15:19:00,
2013-05-08 11:25:00,54.9,52.6,29.94,North,8,2.0,5.0,92,0.00,,,0.15,Wunderground v.1.15,2013-05-08 15:25:00,
2013-05-08 11:31:00,55.0,52.1,29.94,East,91,3.0,5.0,90,0.00,,,0.15,Wunderground v.1.15,2013-05-08 15:31:00,
2013-05-08 11:37:00,55.1,52.5,29.94,SE,131,2.0,5.0,91,0.00,,,0.15,Wunderground v.1.15,2013-05-08 15:37:00,
2013-05-08 11:42:00,55.0,52.4,29.94,WSW,245,1.0,5.0,91,0.00,,,0.15,Wunderground v.1.15,2013-05-08 15:42:00,
2013-05-08 11:47:00,54.9,52.6,29.94,WSW,245,1.0,5.0,92,0.00,,,0.15,Wunderground v.1.15,2013-05-08 15:47:00,
2013-05-08 11:53:00,54.9,52.6,29.94,West,271,1.0,5.0,92,0.00,,,0.16,Wunderground v.1.15,2013-05-08 15:53:00,
2013-05-08 11:59:00,54.9,52.6,29.94,WNW,284,1.0,5.0,92,0.00,,,0.16,Wunderground v.1.15,2013-05-08 15:59:00,
2013-05-08 12:05:00,54.9,52.3,29.94,South,177,2.0,5.0,91,0.06,,,0.17,Wunderground v.1.15,2013-05-08 16:05:00,
2013-05-08 12:11:00,55.0,52.1,29.94,SE,140,3.0,5.0,90,0.06,,,0.17,Wunderground v.1.15,2013-05-08 16:11:00,
2013-05-08 12:17:00,55.1,52.2,29.94,SE,140,1.0,5.0,90,0.04,,,0.17,Wunderground v.1.15,2013-05-08 16:17:00,
2013-05-08 12:23:00,55.4,52.8,29.94,South,174,1.0,5.0,91,0.00,,,0.17,Wunderground v.1.15,2013-05-08 16:23:00,
2013-05-08 12:28:00,55.6,52.7,29.93,ESE,114,2.0,7.0,90,0.00,,,0.17,Wunderground v.1.15,2013-05-08 16:28:00,
2013-05-08 12:34:00,55.5,52.6,29.93,ESE,116,4.0,5.0,90,0.00,,,0.17,Wunderground v.1.15,2013-05-08 16:34:00,
2013-05-08 12:39:00,55.5,52.6,29.93,SSE,153,4.0,5.0,90,0.00,,,0.17,Wunderground v.1.15,2013-05-08 16:39:00,
2013-05-08 12:45:00,55.6,52.7,29.93,SSE,157,3.0,5.0,90,0.00,,,0.17,Wunderground v.1.15,2013-05-08 16:45:00,
2013-05-08 12:50:00,55.7,52.8,29.93,SE,140,2.0,5.0,90,0.00,,,0.17,Wunderground v.1.15,2013-05-08 16:50:00,
2013-05-08 12:55:00,55.9,53.0,29.92,SE,142,2.0,5.0,90,0.00,,,0.17,Wunderground v.1.15,2013-05-08 16:55:00,
2013-05-08 13:00:00,56.1,52.9,29.92,SE,135,2.0,5.0,89,0.00,,,0.17,Wunderground v.1.15,2013-05-08 17:00:00,
2013-05-08 13:05:00,56.2,52.4,29.92,ESE,122,3.0,7.0,87,0.00,,,0.17,Wunderground v.1.15,2013-05-08 17:05:00,
2013-05-08 13:10:00,56.3,52.8,29.92,SE,135,3.0,5.0,88,0.00,,,0.17,Wunderground v.1.15,2013-05-08 17:10:00,
2013-05-08 13:15:00,56.2,52.4,29.92,SE,145,4.0,8.0,87,0.00,,,0.17,Wunderground v.1.15,2013-05-08 17:15:00,
2013-05-08 13:20:00,56.3,52.5,29.92,SSE,156,5.0,5.0,87,0.00,,,0.17,Wunderground v.1.15,2013-05-08 17:20:00,
2013-05-08 13:26:00,56.5,53.0,29.92,SE,145,4.0,5.0,88,0.00,,,0.17,Wunderground v.1.15,2013-05-08 17:26:00,
2013-05-08 13:32:00,56.6,52.8,29.92,SE,132,4.0,5.0,87,0.00,,,0.17,Wunderground v.1.15,2013-05-08 17:32:00,
2013-05-08 13:37:00,56.7,52.6,29.92,South,177,4.0,5.0,86,0.00,,,0.17,Wunderground v.1.15,2013-05-08 17:37:00,
2013-05-08 13:42:00,57.0,52.9,29.92,ESE,110,4.0,7.0,86,0.00,,,0.17,Wunderground v.1.15,2013-05-08 17:42:00,
2013-05-08 13:47:00,57.1,53.0,29.92,ESE,116,4.0,7.0,86,0.00,,,0.17,Wunderground v.1.15,2013-05-08 17:47:00,
2013-05-08 13:52:00,57.3,53.1,29.92,SE,139,4.0,6.0,86,0.00,,,0.17,Wunderground v.1.15,2013-05-08 17:52:00,
2013-05-08 13:58:00,57.0,52.5,29.92,SE,136,4.0,7.0,85,0.00,,,0.17,Wunderground v.1.15,2013-05-08 17:58:00,
2013-05-08 14:04:00,56.6,52.1,29.92,SE,131,5.0,7.0,85,0.00,,,0.17,Wunderground v.1.15,2013-05-08 18:04:00,
2013-05-08 14:10:00,56.4,52.6,29.92,SE,130,5.0,6.0,87,0.00,,,0.17,Wunderground v.1.15,2013-05-08 18:10:00,
2013-05-08 14:16:00,56.2,52.7,29.92,ESE,123,4.0,6.0,88,0.00,,,0.17,Wunderground v.1.15,2013-05-08 18:16:00,
2013-05-08 14:22:00,55.9,52.7,29.92,SSW,195,4.0,7.0,89,0.00,,,0.18,Wunderground v.1.15,2013-05-08 18:22:00,
2013-05-08 14:27:00,55.7,52.8,29.92,SSE,156,4.0,7.0,90,0.00,,,0.18,Wunderground v.1.15,2013-05-08 18:27:00,
2013-05-08 14:33:00,55.7,52.8,29.92,South,170,3.0,5.0,90,0.00,,,0.18,Wunderground v.1.15,2013-05-08 18:33:00,
2013-05-08 14:39:00,55.7,53.1,29.92,SSE,157,2.0,5.0,91,0.00,,,0.19,Wunderground v.1.15,2013-05-08 18:39:00,
2013-05-08 14:44:00,55.6,53.0,29.92,SE,135,2.0,5.0,91,0.15,,,0.20,Wunderground v.1.15,2013-05-08 18:44:00,
2013-05-08 14:49:00,55.5,52.9,29.92,SE,126,2.0,5.0,91,0.12,,,0.21,Wunderground v.1.15,2013-05-08 18:49:00,
2013-05-08 14:55:00,55.4,52.8,29.92,SSE,168,2.0,5.0,91,0.11,,,0.22,Wunderground v.1.15,2013-05-08 18:55:00,
2013-05-08 15:00:00,55.4,53.1,29.92,SSE,149,2.0,2.0,92,0.08,,,0.23,Wunderground v.1.15,2013-05-08 19:00:00,
2013-05-08 15:05:00,55.3,52.7,29.92,SE,128,1.0,5.0,91,0.08,,,0.23,Wunderground v.1.15,2013-05-08 19:05:00,
2013-05-08 15:11:00,55.2,52.6,29.92,SE,128,1.0,5.0,91,0.04,,,0.23,Wunderground v.1.15,2013-05-08 19:11:00,
2013-05-08 15:16:00,55.3,52.7,29.91,SE,128,1.0,5.0,91,0.00,,,0.23,Wunderground v.1.15,2013-05-08 19:16:00,
2013-05-08 15:21:00,55.5,53.2,29.91,SE,128,0.0,5.0,92,0.00,,,0.23,Wunderground v.1.15,2013-05-08 19:21:00,
2013-05-08 15:27:00,55.8,52.9,29.91,SSW,202,0.0,5.0,90,0.00,,,0.23,Wunderground v.1.15,2013-05-08 19:27:00,
2013-05-08 15:32:00,56.0,52.2,29.91,SSW,195,1.0,5.0,87,0.00,,,0.23,Wunderground v.1.15,2013-05-08 19:32:00,
2013-05-08 15:38:00,56.2,52.4,29.91,SW,220,2.0,5.0,87,0.00,,,0.23,Wunderground v.1.15,2013-05-08 19:38:00,
2013-05-08 15:44:00,56.3,51.5,29.91,SW,233,2.0,5.0,84,0.00,,,0.23,Wunderground v.1.15,2013-05-08 19:44:00,
2013-05-08 15:50:00,56.6,52.5,29.90,SW,216,2.0,2.0,86,0.00,,,0.23,Wunderground v.1.15,2013-05-08 19:50:00,
2013-05-08 15:56:00,56.8,52.0,29.90,SW,215,1.0,5.0,84,0.00,,,0.23,Wunderground v.1.15,2013-05-08 19:56:00,
2013-05-08 16:02:00,57.0,51.9,29.90,SSW,206,2.0,5.0,83,0.00,,,0.23,Wunderground v.1.15,2013-05-08 20:02:00,
2013-05-08 16:07:00,57.2,52.4,29.90,WNW,290,2.0,5.0,84,0.00,,,0.23,Wunderground v.1.15,2013-05-08 20:07:00,
2013-05-08 16:13:00,57.5,52.7,29.90,WNW,291,2.0,5.0,84,0.00,,,0.23,Wunderground v.1.15,2013-05-08 20:13:00,
2013-05-08 16:19:00,57.7,52.9,29.90,WNW,295,1.0,5.0,84,0.00,,,0.23,Wunderground v.1.15,2013-05-08 20:19:00,
2013-05-08 16:24:00,58.0,53.2,29.90,West,267,1.0,5.0,84,0.00,,,0.23,Wunderground v.1.15,2013-05-08 20:24:00,
2013-05-08 16:29:00,58.5,54.0,29.90,West,264,1.0,5.0,85,0.00,,,0.23,Wunderground v.1.15,2013-05-08 20:29:00,
2013-05-08 16:34:00,58.8,53.6,29.90,NW,313,2.0,5.0,83,0.00,,,0.23,Wunderground v.1.15,2013-05-08 20:34:00,
2013-05-08 16:39:00,58.7,52.9,29.90,West,265,3.0,5.0,81,0.00,,,0.23,Wunderground v.1.15,2013-05-08 20:39:00,
2013-05-08 16:45:00,59.2,53.7,29.90,West,264,2.0,5.0,82,0.00,,,0.23,Wunderground v.1.15,2013-05-08 20:45:00,
2013-05-08 16:51:00,59.7,52.8,29.90,NW,313,2.0,5.0,78,0.00,,,0.23,Wunderground v.1.15,2013-05-08 20:51:00,
2013-05-08 16:57:00,59.5,53.0,29.90,West,280,3.0,5.0,79,0.00,,,0.23,Wunderground v.1.15,2013-05-08 20:57:00,
2013-05-08 17:02:00,59.5,53.7,29.90,West,261,3.0,5.0,81,0.00,,,0.23,Wunderground v.1.15,2013-05-08 21:02:00,
2013-05-08 17:07:00,59.9,52.7,29.90,NNE,12,3.0,5.0,77,0.00,,,0.23,Wunderground v.1.15,2013-05-08 21:07:00,
2013-05-08 17:12:00,59.9,53.0,29.90,NNW,327,3.0,5.0,78,0.00,,,0.23,Wunderground v.1.15,2013-05-08 21:12:00,
2013-05-08 17:17:00,60.0,53.1,29.90,NNW,344,3.0,5.0,78,0.00,,,0.23,Wunderground v.1.15,2013-05-08 21:17:00,
2013-05-08 17:22:00,59.8,52.9,29.90,NNW,329,2.0,5.0,78,0.00,,,0.23,Wunderground v.1.15,2013-05-08 21:22:00,
2013-05-08 17:28:00,59.3,53.5,29.90,NNE,21,2.0,5.0,81,0.00,,,0.23,Wunderground v.1.15,2013-05-08 21:28:00,
2013-05-08 17:33:00,58.9,53.4,29.90,NNW,339,2.0,5.0,82,0.00,,,0.23,Wunderground v.1.15,2013-05-08 21:33:00,
2013-05-08 17:39:00,58.5,53.4,29.90,North,8,2.0,5.0,83,0.00,,,0.23,Wunderground v.1.15,2013-05-08 21:39:00,
2013-05-08 17:44:00,58.0,53.2,29.90,North,10,2.0,5.0,84,0.00,,,0.23,Wunderground v.1.15,2013-05-08 21:44:00,
2013-05-08 17:49:00,57.7,53.5,29.90,NNW,347,1.0,5.0,86,0.00,,,0.23,Wunderground v.1.15,2013-05-08 21:49:00,
2013-05-08 17:54:00,57.9,53.7,29.90,NNW,348,1.0,5.0,86,0.00,,,0.23,Wunderground v.1.15,2013-05-08 21:54:00,
2013-05-08 18:00:00,57.9,53.4,29.90,North,4,2.0,5.0,85,0.00,,,0.23,Wunderground v.1.15,2013-05-08 22:00:00,
2013-05-08 18:05:00,58.4,53.6,29.90,NNW,347,2.0,5.0,84,0.00,,,0.23,Wunderground v.1.15,2013-05-08 22:05:00,
2013-05-08 18:10:00,58.5,53.0,29.90,ENE,67,3.0,3.0,82,0.00,,,0.23,Wunderground v.1.15,2013-05-08 22:10:00,
2013-05-08 18:15:00,58.2,53.1,29.90,ENE,70,3.0,5.0,83,0.00,,,0.23,Wunderground v.1.15,2013-05-08 22:15:00,
2013-05-08 18:20:00,58.3,53.2,29.90,NE,54,3.0,3.0,83,0.00,,,0.23,Wunderground v.1.15,2013-05-08 22:20:00,
2013-05-08 18:25:00,58.5,52.7,29.90,ENE,61,2.0,5.0,81,0.00,,,0.23,Wunderground v.1.15,2013-05-08 22:25:00,
2013-05-08 18:30:00,58.2,52.7,29.90,ENE,64,2.0,2.0,82,0.00,,,0.23,Wunderground v.1.15,2013-05-08 22:30:00,
2013-05-08 18:36:00,58.0,52.5,29.90,North,4,2.0,5.0,82,0.00,,,0.23,Wunderground v.1.15,2013-05-08 22:36:00,
2013-05-08 18:41:00,57.8,52.3,29.90,NNE,24,1.0,5.0,82,0.00,,,0.23,Wunderground v.1.15,2013-05-08 22:41:00,
2013-05-08 18:46:00,57.7,52.2,29.90,NNE,24,1.0,5.0,82,0.00,,,0.23,Wunderground v.1.15,2013-05-08 22:46:00,
2013-05-08 18:51:00,57.9,52.4,29.90,NNW,347,1.0,5.0,82,0.00,,,0.23,Wunderground v.1.15,2013-05-08 22:51:00,
2013-05-08 18:56:00,57.8,52.3,29.90,NE,48,1.0,5.0,82,0.00,,,0.23,Wunderground v.1.15,2013-05-08 22:56:00,
2013-05-08 19:02:00,57.8,52.3,29.90,NE,48,1.0,5.0,82,0.00,,,0.23,Wunderground v.1.15,2013-05-08 23:02:00,
2013-05-08 19:07:00,57.7,51.9,29.90,NE,47,1.0,5.0,81,0.00,,,0.23,Wunderground v.1.15,2013-05-08 23:07:00,
2013-05-08 19:12:00,57.9,51.8,29.90,NE,47,1.0,5.0,80,0.00,,,0.23,Wunderground v.1.15,2013-05-08 23:12:00,
2013-05-08 19:17:00,58.0,51.9,29.90,NE,47,1.0,5.0,80,0.00,,,0.23,Wunderground v.1.15,2013-05-08 23:17:00,
2013-05-08 19:22:00,58.0,51.9,29.90,NE,46,1.0,5.0,80,0.00,,,0.23,Wunderground v.1.15,2013-05-08 23:22:00,
2013-05-08 19:27:00,58.0,51.9,29.90,NE,46,0.0,5.0,80,0.00,,,0.23,Wunderground v.1.15,2013-05-08 23:27:00,
2013-05-08 19:33:00,57.8,51.7,29.90,NE,46,0.0,5.0,80,0.00,,,0.23,Wunderground v.1.15,2013-05-08 23:33:00,
2013-05-08 19:38:00,57.5,51.7,29.90,NE,46,0.0,5.0,81,0.00,,,0.23,Wunderground v.1.15,2013-05-08 23:38:00,
2013-05-08 19:43:00,57.2,51.8,29.90,NE,46,0.0,5.0,82,0.00,,,0.23,Wunderground v.1.15,2013-05-08 23:43:00,
2013-05-08 19:48:00,57.0,51.6,29.90,NE,46,0.0,5.0,82,0.00,,,0.23,Wunderground v.1.15,2013-05-08 23:48:00,
2013-05-08 19:53:00,56.7,51.9,29.91,NE,46,0.0,5.0,84,0.00,,,0.23,Wunderground v.1.15,2013-05-08 23:53:00,
2013-05-08 19:58:00,56.2,51.7,29.91,NE,46,0.0,5.0,85,0.00,,,0.23,Wunderground v.1.15,2013-05-08 23:58:00,
2013-05-08 20:04:00,55.9,51.5,29.91,NE,46,0.0,5.0,85,0.00,,,0.23,Wunderground v.1.15,2013-05-09 00:04:00,
2013-05-08 20:10:00,55.6,51.5,29.91,NE,45,0.0,5.0,86,0.00,,,0.23,Wunderground v.1.15,2013-05-09 00:10:00,
2013-05-08 20:16:00,55.2,51.1,29.91,NE,45,0.0,5.0,86,0.00,,,0.23,Wunderground v.1.15,2013-05-09 00:16:00,
2013-05-08 20:22:00,54.9,51.1,29.91,NE,46,0.0,5.0,87,0.00,,,0.23,Wunderground v.1.15,2013-05-09 00:22:00,
2013-05-08 20:27:00,54.6,51.1,29.91,NE,46,0.0,5.0,88,0.00,,,0.23,Wunderground v.1.15,2013-05-09 00:27:00,
2013-05-08 20:33:00,54.3,51.1,29.92,NE,46,0.0,5.0,89,0.00,,,0.23,Wunderground v.1.15,2013-05-09 00:33:00,
2013-05-08 20:39:00,53.9,50.7,29.92,NE,46,0.0,5.0,89,0.00,,,0.23,Wunderground v.1.15,2013-05-09 00:39:00,
2013-05-08 20:45:00,53.7,50.8,29.92,NE,46,0.0,5.0,90,0.00,,,0.23,Wunderground v.1.15,2013-05-09 00:45:00,
2013-05-08 20:51:00,53.4,50.5,29.92,NE,46,0.0,5.0,90,0.00,,,0.23,Wunderground v.1.15,2013-05-09 00:51:00,
2013-05-08 20:57:00,53.1,50.5,29.92,NE,45,0.0,5.0,91,0.00,,,0.23,Wunderground v.1.15,2013-05-09 00:57:00,
2013-05-08 21:03:00,52.9,50.3,29.92,NE,46,0.0,5.0,91,0.00,,,0.23,Wunderground v.1.15,2013-05-09 01:03:00,
2013-05-08 21:09:00,52.7,50.4,29.92,NE,45,0.0,5.0,92,0.00,,,0.23,Wunderground v.1.15,2013-05-09 01:09:00,
2013-05-08 21:15:00,52.7,50.4,29.92,NE,46,1.0,5.0,92,0.00,,,0.23,Wunderground v.1.15,2013-05-09 01:15:00,
2013-05-08 21:21:00,52.4,50.1,29.92,NE,46,0.0,5.0,92,0.00,,,0.23,Wunderground v.1.15,2013-05-09 01:21:00,
2013-05-08 21:27:00,52.3,50.0,29.92,NE,45,0.0,5.0,92,0.00,,,0.23,Wunderground v.1.15,2013-05-09 01:27:00,
2013-05-08 21:32:00,52.2,50.2,29.93,NE,46,0.0,5.0,93,0.00,,,0.23,Wunderground v.1.15,2013-05-09 01:32:00,
2013-05-08 21:37:00,52.1,50.1,29.93,NE,46,0.0,5.0,93,0.00,,,0.23,Wunderground v.1.15,2013-05-09 01:37:00,
2013-05-08 21:42:00,52.1,50.1,29.93,NE,46,1.0,5.0,93,0.00,,,0.23,Wunderground v.1.15,2013-05-09 01:42:00,
2013-05-08 21:48:00,51.8,49.8,29.93,NE,46,1.0,5.0,93,0.00,,,0.23,Wunderground v.1.15,2013-05-09 01:48:00,
2013-05-08 21:53:00,51.8,49.8,29.94,NE,46,0.0,5.0,93,0.00,,,0.23,Wunderground v.1.15,2013-05-09 01:53:00,
2013-05-08 21:59:00,51.7,49.7,29.94,NE,46,0.0,5.0,93,0.00,,,0.23,Wunderground v.1.15,2013-05-09 01:59:00,
2013-05-08 22:04:00,51.5,49.5,29.94,NE,46,0.0,5.0,93,0.00,,,0.23,Wunderground v.1.15,2013-05-09 02:04:00,
2013-05-08 22:10:00,51.2,49.2,29.94,NE,46,0.0,5.0,93,0.00,,,0.23,Wunderground v.1.15,2013-05-09 02:10:00,
2013-05-08 22:16:00,51.0,49.0,29.94,NE,46,0.0,5.0,93,0.00,,,0.23,Wunderground v.1.15,2013-05-09 02:16:00,
2013-05-08 22:21:00,50.9,48.9,29.94,NE,46,0.0,5.0,93,0.00,,,0.23,Wunderground v.1.15,2013-05-09 02:21:00,
2013-05-08 22:26:00,50.7,48.7,29.94,NE,46,0.0,5.0,93,0.00,,,0.23,Wunderground v.1.15,2013-05-09 02:26:00,
2013-05-08 22:31:00,50.6,48.7,29.94,NE,46,0.0,5.0,93,0.00,,,0.23,Wunderground v.1.15,2013-05-09 02:31:00,
2013-05-08 22:36:00,50.4,48.5,29.94,NE,46,0.0,5.0,93,0.00,,,0.23,Wunderground v.1.15,2013-05-09 02:36:00,
2013-05-08 22:41:00,50.3,48.4,29.94,NE,46,0.0,5.0,93,0.00,,,0.23,Wunderground v.1.15,2013-05-09 02:41:00,
2013-05-08 22:47:00,50.1,48.2,29.94,NE,45,0.0,5.0,93,0.00,,,0.23,Wunderground v.1.15,2013-05-09 02:47:00,
2013-05-08 22:52:00,49.9,48.0,29.94,NE,46,0.0,5.0,93,0.00,,,0.23,Wunderground v.1.15,2013-05-09 02:52:00,
2013-05-08 22:58:00,49.7,47.8,29.94,NE,46,0.0,5.0,93,0.00,,,0.23,Wunderground v.1.15,2013-05-09 02:58:00,
2013-05-08 23:03:00,49.5,47.6,29.94,NE,46,0.0,5.0,93,0.00,,,0.23,Wunderground v.1.15,2013-05-09 03:03:00,
2013-05-08 23:09:00,49.3,47.4,29.94,NE,46,0.0,5.0,93,0.00,,,0.23,Wunderground v.1.15,2013-05-09 03:09:00,
2013-05-08 23:14:00,49.2,47.5,29.94,NE,46,0.0,5.0,94,0.00,,,0.23,Wunderground v.1.15,2013-05-09 03:14:00,
2013-05-08 23:19:00,49.0,47.3,29.94,NE,46,0.0,5.0,94,0.00,,,0.23,Wunderground v.1.15,2013-05-09 03:19:00,
2013-05-08 23:24:00,48.9,47.2,29.94,NE,46,0.0,5.0,94,0.00,,,0.23,Wunderground v.1.15,2013-05-09 03:24:00,
2013-05-08 23:30:00,48.8,47.2,29.94,NE,46,0.0,5.0,94,0.00,,,0.23,Wunderground v.1.15,2013-05-09 03:30:00,
2013-05-08 23:35:00,48.8,47.2,29.94,NE,46,0.0,5.0,94,0.00,,,0.23,Wunderground v.1.15,2013-05-09 03:35:00,
2013-05-08 23:40:00,48.7,47.1,29.94,NE,46,0.0,5.0,94,0.00,,,0.23,Wunderground v.1.15,2013-05-09 03:40:00,
2013-05-08 23:45:00,48.5,46.9,29.94,NE,46,0.0,5.0,94,0.00,,,0.23,Wunderground v.1.15,2013-05-09 03:45:00,
2013-05-08 23:51:00,48.4,46.8,29.94,NE,46,0.0,5.0,94,0.00,,,0.23,Wunderground v.1.15,2013-05-09 03:51:00,
2013-05-08 23:57:00,48.2,46.6,29.94,NE,46,0.0,5.0,94,0.00,,,0.23,Wunderground v.1.15,2013-05-09 03:57:00,